sensor_id;sensor_type;location;lat;lon;timestamp;P1;durP1;ratioP1;P2;durP2;ratioP2
54261;SDS011;40174;52.364;6.452;2022-10-04T00:01:49;7.65;;;1.88;;
54261;SDS011;40174;52.364;6.452;2022-10-04T00:04:20;5.95;;;2.13;;
54261;SDS011;40174;52.364;6.452;2022-10-04T00:06:52;7.07;;;2.00;;
54261;SDS011;40174;52.364;6.452;2022-10-04T00:09:23;5.82;;;1.73;;
54261;SDS011;40174;52.364;6.452;2022-10-04T00:11:53;6.47;;;1.85;;
54261;SDS011;40174;52.364;6.452;2022-10-04T00:14:22;6.53;;;2.08;;
54261;SDS011;40174;52.364;6.452;2022-10-04T00:16:52;10.32;;;1.83;;
54261;SDS011;40174;52.364;6.452;2022-10-04T00:19:25;10.27;;;2.53;;
54261;SDS011;40174;52.364;6.452;2022-10-04T00:22:15;5.15;;;1.80;;
54261;SDS011;40174;52.364;6.452;2022-10-04T00:33:33;6.15;;;1.83;;
54261;SDS011;40174;52.364;6.452;2022-10-04T00:36:02;8.18;;;2.45;;
54261;SDS011;40174;52.364;6.452;2022-10-04T00:39:22;9.05;;;2.65;;
54261;SDS011;40174;52.364;6.452;2022-10-04T00:41:54;12.90;;;2.10;;
54261;SDS011;40174;52.364;6.452;2022-10-04T00:44:27;6.15;;;1.80;;
54261;SDS011;40174;52.364;6.452;2022-10-04T00:46:59;5.45;;;2.03;;
54261;SDS011;40174;52.364;6.452;2022-10-04T00:49:30;5.43;;;1.83;;
54261;SDS011;40174;52.364;6.452;2022-10-04T00:52:02;5.45;;;1.88;;
54261;SDS011;40174;52.364;6.452;2022-10-04T00:54:35;6.45;;;1.77;;
54261;SDS011;40174;52.364;6.452;2022-10-04T00:57:06;5.93;;;1.65;;
54261;SDS011;40174;52.364;6.452;2022-10-04T00:59:36;5.07;;;1.67;;
54261;SDS011;40174;52.364;6.452;2022-10-04T01:02:05;7.47;;;2.50;;
54261;SDS011;40174;52.364;6.452;2022-10-04T01:04:41;7.30;;;1.95;;
54261;SDS011;40174;52.364;6.452;2022-10-04T01:07:11;9.57;;;2.53;;
54261;SDS011;40174;52.364;6.452;2022-10-04T01:09:45;7.65;;;2.10;;
54261;SDS011;40174;52.364;6.452;2022-10-04T01:12:20;7.30;;;1.55;;
54261;SDS011;40174;52.364;6.452;2022-10-04T01:14:59;6.00;;;2.38;;
54261;SDS011;40174;52.364;6.452;2022-10-04T01:17:31;7.43;;;2.00;;
54261;SDS011;40174;52.364;6.452;2022-10-04T01:19:58;9.25;;;2.05;;
54261;SDS011;40174;52.364;6.452;2022-10-04T01:22:36;7.75;;;2.35;;
54261;SDS011;40174;52.364;6.452;2022-10-04T01:25:07;6.72;;;2.67;;
54261;SDS011;40174;52.364;6.452;2022-10-04T01:27:35;6.22;;;2.15;;
54261;SDS011;40174;52.364;6.452;2022-10-04T01:30:06;8.73;;;2.80;;
54261;SDS011;40174;52.364;6.452;2022-10-04T01:32:35;7.78;;;2.72;;
54261;SDS011;40174;52.364;6.452;2022-10-04T01:35:03;7.82;;;2.97;;
54261;SDS011;40174;52.364;6.452;2022-10-04T01:37:32;10.70;;;3.95;;
54261;SDS011;40174;52.364;6.452;2022-10-04T01:40:00;9.27;;;3.08;;
54261;SDS011;40174;52.364;6.452;2022-10-04T01:42:28;7.57;;;3.28;;
54261;SDS011;40174;52.364;6.452;2022-10-04T01:45:02;12.65;;;3.88;;
54261;SDS011;40174;52.364;6.452;2022-10-04T01:47:36;12.05;;;3.65;;
54261;SDS011;40174;52.364;6.452;2022-10-04T01:50:08;16.23;;;4.03;;
54261;SDS011;40174;52.364;6.452;2022-10-04T01:52:39;11.40;;;3.70;;
54261;SDS011;40174;52.364;6.452;2022-10-04T01:55:11;12.10;;;3.72;;
54261;SDS011;40174;52.364;6.452;2022-10-04T01:57:40;10.85;;;4.00;;
54261;SDS011;40174;52.364;6.452;2022-10-04T02:00:12;9.23;;;3.70;;
54261;SDS011;40174;52.364;6.452;2022-10-04T02:02:40;8.90;;;3.83;;
54261;SDS011;40174;52.364;6.452;2022-10-04T02:05:15;10.77;;;4.27;;
54261;SDS011;40174;52.364;6.452;2022-10-04T02:07:44;10.95;;;4.03;;
54261;SDS011;40174;52.364;6.452;2022-10-04T02:10:16;11.02;;;4.22;;
54261;SDS011;40174;52.364;6.452;2022-10-04T02:12:46;11.30;;;4.05;;
54261;SDS011;40174;52.364;6.452;2022-10-04T02:15:17;10.55;;;3.85;;
54261;SDS011;40174;52.364;6.452;2022-10-04T02:17:45;14.02;;;4.28;;
54261;SDS011;40174;52.364;6.452;2022-10-04T02:20:14;11.77;;;4.20;;
54261;SDS011;40174;52.364;6.452;2022-10-04T02:22:42;8.55;;;3.53;;
54261;SDS011;40174;52.364;6.452;2022-10-04T02:25:11;10.00;;;3.80;;
54261;SDS011;40174;52.364;6.452;2022-10-04T02:27:40;7.88;;;3.38;;
54261;SDS011;40174;52.364;6.452;2022-10-04T02:30:08;10.90;;;3.33;;
54261;SDS011;40174;52.364;6.452;2022-10-04T02:32:36;10.18;;;3.97;;
54261;SDS011;40174;52.364;6.452;2022-10-04T02:35:22;11.27;;;3.50;;
54261;SDS011;40174;52.364;6.452;2022-10-04T02:37:54;10.13;;;3.80;;
54261;SDS011;40174;52.364;6.452;2022-10-04T02:40:29;11.48;;;3.42;;
54261;SDS011;40174;52.364;6.452;2022-10-04T02:43:03;10.63;;;3.83;;
54261;SDS011;40174;52.364;6.452;2022-10-04T02:45:37;11.73;;;4.57;;
54261;SDS011;40174;52.364;6.452;2022-10-04T02:48:15;10.00;;;4.20;;
54261;SDS011;40174;52.364;6.452;2022-10-04T02:50:52;9.45;;;3.60;;
54261;SDS011;40174;52.364;6.452;2022-10-04T02:53:30;11.30;;;4.32;;
54261;SDS011;40174;52.364;6.452;2022-10-04T02:56:02;14.98;;;4.10;;
54261;SDS011;40174;52.364;6.452;2022-10-04T02:58:30;9.68;;;4.18;;
54261;SDS011;40174;52.364;6.452;2022-10-04T03:00:58;13.05;;;4.43;;
54261;SDS011;40174;52.364;6.452;2022-10-04T03:03:26;11.15;;;5.15;;
54261;SDS011;40174;52.364;6.452;2022-10-04T03:06:01;12.50;;;4.30;;
54261;SDS011;40174;52.364;6.452;2022-10-04T03:08:34;14.40;;;4.07;;
54261;SDS011;40174;52.364;6.452;2022-10-04T03:11:09;13.57;;;4.30;;
54261;SDS011;40174;52.364;6.452;2022-10-04T03:13:40;9.07;;;4.50;;
54261;SDS011;40174;52.364;6.452;2022-10-04T03:16:11;11.50;;;4.53;;
54261;SDS011;40174;52.364;6.452;2022-10-04T03:18:39;15.65;;;5.65;;
54261;SDS011;40174;52.364;6.452;2022-10-04T03:21:07;10.40;;;4.95;;
54261;SDS011;40174;52.364;6.452;2022-10-04T03:23:37;13.13;;;4.63;;
54261;SDS011;40174;52.364;6.452;2022-10-04T03:26:08;9.77;;;4.78;;
54261;SDS011;40174;52.364;6.452;2022-10-04T03:28:44;13.77;;;5.00;;
54261;SDS011;40174;52.364;6.452;2022-10-04T03:31:11;11.77;;;5.40;;
54261;SDS011;40174;52.364;6.452;2022-10-04T03:33:39;9.10;;;4.85;;
54261;SDS011;40174;52.364;6.452;2022-10-04T03:36:10;12.52;;;5.18;;
54261;SDS011;40174;52.364;6.452;2022-10-04T03:38:39;10.20;;;5.20;;
54261;SDS011;40174;52.364;6.452;2022-10-04T03:41:08;10.93;;;4.95;;
54261;SDS011;40174;52.364;6.452;2022-10-04T03:43:37;13.40;;;5.60;;
54261;SDS011;40174;52.364;6.452;2022-10-04T03:46:09;11.00;;;5.00;;
54261;SDS011;40174;52.364;6.452;2022-10-04T03:48:38;15.52;;;5.28;;
54261;SDS011;40174;52.364;6.452;2022-10-04T03:51:10;11.07;;;5.20;;
54261;SDS011;40174;52.364;6.452;2022-10-04T03:53:42;13.13;;;4.95;;
54261;SDS011;40174;52.364;6.452;2022-10-04T03:56:11;15.23;;;5.85;;
54261;SDS011;40174;52.364;6.452;2022-10-04T03:58:41;13.65;;;5.45;;
54261;SDS011;40174;52.364;6.452;2022-10-04T04:01:12;16.13;;;5.90;;
54261;SDS011;40174;52.364;6.452;2022-10-04T04:03:49;12.05;;;5.55;;
54261;SDS011;40174;52.364;6.452;2022-10-04T04:06:21;16.40;;;6.07;;
54261;SDS011;40174;52.364;6.452;2022-10-04T04:08:52;13.23;;;6.32;;
54261;SDS011;40174;52.364;6.452;2022-10-04T04:11:22;18.23;;;6.32;;
54261;SDS011;40174;52.364;6.452;2022-10-04T04:13:53;12.60;;;6.13;;
54261;SDS011;40174;52.364;6.452;2022-10-04T04:16:26;16.83;;;6.57;;
54261;SDS011;40174;52.364;6.452;2022-10-04T04:18:54;17.02;;;6.35;;
54261;SDS011;40174;52.364;6.452;2022-10-04T04:21:26;13.57;;;6.28;;
54261;SDS011;40174;52.364;6.452;2022-10-04T04:23:55;12.00;;;5.78;;
54261;SDS011;40174;52.364;6.452;2022-10-04T04:26:26;13.55;;;6.68;;
54261;SDS011;40174;52.364;6.452;2022-10-04T04:29:01;14.88;;;6.70;;
54261;SDS011;40174;52.364;6.452;2022-10-04T04:31:34;13.93;;;6.05;;
54261;SDS011;40174;52.364;6.452;2022-10-04T04:34:14;11.68;;;6.13;;
54261;SDS011;40174;52.364;6.452;2022-10-04T04:36:43;11.45;;;6.30;;
54261;SDS011;40174;52.364;6.452;2022-10-04T04:39:13;11.30;;;5.80;;
54261;SDS011;40174;52.364;6.452;2022-10-04T04:42:01;13.98;;;6.18;;
54261;SDS011;40174;52.364;6.452;2022-10-04T04:44:32;10.80;;;5.90;;
54261;SDS011;40174;52.364;6.452;2022-10-04T04:47:00;12.20;;;6.03;;
54261;SDS011;40174;52.364;6.452;2022-10-04T04:49:35;15.70;;;6.50;;
54261;SDS011;40174;52.364;6.452;2022-10-04T04:52:05;13.63;;;6.20;;
54261;SDS011;40174;52.364;6.452;2022-10-04T04:54:38;12.35;;;6.07;;
54261;SDS011;40174;52.364;6.452;2022-10-04T04:57:05;14.93;;;6.22;;
54261;SDS011;40174;52.364;6.452;2022-10-04T04:59:32;13.43;;;6.40;;
54261;SDS011;40174;52.364;6.452;2022-10-04T05:02:02;14.75;;;6.00;;
54261;SDS011;40174;52.364;6.452;2022-10-04T05:04:29;17.70;;;5.63;;
54261;SDS011;40174;52.364;6.452;2022-10-04T05:06:59;20.13;;;6.00;;
54261;SDS011;40174;52.364;6.452;2022-10-04T05:09:28;15.15;;;5.80;;
54261;SDS011;40174;52.364;6.452;2022-10-04T05:11:58;12.23;;;5.78;;
54261;SDS011;40174;52.364;6.452;2022-10-04T05:14:33;11.27;;;5.60;;
54261;SDS011;40174;52.364;6.452;2022-10-04T05:17:04;11.65;;;5.38;;
54261;SDS011;40174;52.364;6.452;2022-10-04T05:19:33;13.27;;;6.20;;
54261;SDS011;40174;52.364;6.452;2022-10-04T05:22:08;16.67;;;6.25;;
54261;SDS011;40174;52.364;6.452;2022-10-04T05:24:37;12.95;;;5.72;;
54261;SDS011;40174;52.364;6.452;2022-10-04T05:27:05;13.05;;;6.03;;
54261;SDS011;40174;52.364;6.452;2022-10-04T05:29:39;11.75;;;5.60;;
54261;SDS011;40174;52.364;6.452;2022-10-04T05:32:20;13.00;;;5.70;;
54261;SDS011;40174;52.364;6.452;2022-10-04T05:34:54;11.48;;;6.15;;
54261;SDS011;40174;52.364;6.452;2022-10-04T05:37:24;13.45;;;5.90;;
54261;SDS011;40174;52.364;6.452;2022-10-04T05:40:04;9.65;;;5.55;;
54261;SDS011;40174;52.364;6.452;2022-10-04T05:42:42;13.77;;;5.80;;
54261;SDS011;40174;52.364;6.452;2022-10-04T05:45:11;13.00;;;5.95;;
54261;SDS011;40174;52.364;6.452;2022-10-04T05:47:42;14.93;;;6.57;;
54261;SDS011;40174;52.364;6.452;2022-10-04T05:50:13;13.65;;;5.95;;
54261;SDS011;40174;52.364;6.452;2022-10-04T05:52:43;11.27;;;6.07;;
54261;SDS011;40174;52.364;6.452;2022-10-04T05:55:14;13.38;;;7.00;;
54261;SDS011;40174;52.364;6.452;2022-10-04T05:57:45;13.20;;;6.38;;
54261;SDS011;40174;52.364;6.452;2022-10-04T06:00:24;13.02;;;6.63;;
54261;SDS011;40174;52.364;6.452;2022-10-04T06:06:13;15.02;;;7.57;;
54261;SDS011;40174;52.364;6.452;2022-10-04T06:08:46;17.15;;;8.68;;
54261;SDS011;40174;52.364;6.452;2022-10-04T06:11:29;20.17;;;9.75;;
54261;SDS011;40174;52.364;6.452;2022-10-04T06:14:14;18.88;;;9.05;;
54261;SDS011;40174;52.364;6.452;2022-10-04T06:22:55;15.07;;;7.07;;
54261;SDS011;40174;52.364;6.452;2022-10-04T06:25:26;15.07;;;7.43;;
54261;SDS011;40174;52.364;6.452;2022-10-04T06:27:57;13.73;;;7.78;;
54261;SDS011;40174;52.364;6.452;2022-10-04T06:30:39;15.73;;;7.80;;
54261;SDS011;40174;52.364;6.452;2022-10-04T06:33:23;16.33;;;7.57;;
54261;SDS011;40174;52.364;6.452;2022-10-04T06:36:08;13.95;;;7.47;;
54261;SDS011;40174;52.364;6.452;2022-10-04T06:38:52;16.38;;;7.93;;
54261;SDS011;40174;52.364;6.452;2022-10-04T06:41:41;17.77;;;8.00;;
54261;SDS011;40174;52.364;6.452;2022-10-04T06:44:25;12.63;;;7.50;;
54261;SDS011;40174;52.364;6.452;2022-10-04T06:47:08;17.00;;;7.53;;
54261;SDS011;40174;52.364;6.452;2022-10-04T06:49:46;16.23;;;7.75;;
54261;SDS011;40174;52.364;6.452;2022-10-04T06:52:27;17.77;;;8.18;;
54261;SDS011;40174;52.364;6.452;2022-10-04T06:55:11;15.43;;;7.65;;
54261;SDS011;40174;52.364;6.452;2022-10-04T07:01:01;14.30;;;7.25;;
54261;SDS011;40174;52.364;6.452;2022-10-04T07:03:32;17.38;;;8.00;;
54261;SDS011;40174;52.364;6.452;2022-10-04T07:06:04;18.33;;;8.88;;
54261;SDS011;40174;52.364;6.452;2022-10-04T07:08:37;14.52;;;7.63;;
54261;SDS011;40174;52.364;6.452;2022-10-04T07:11:10;16.25;;;7.65;;
54261;SDS011;40174;52.364;6.452;2022-10-04T07:13:42;15.98;;;7.47;;
54261;SDS011;40174;52.364;6.452;2022-10-04T07:16:21;18.48;;;8.50;;
54261;SDS011;40174;52.364;6.452;2022-10-04T07:18:56;14.02;;;6.95;;
54261;SDS011;40174;52.364;6.452;2022-10-04T07:21:32;19.15;;;8.15;;
54261;SDS011;40174;52.364;6.452;2022-10-04T07:24:07;16.50;;;8.23;;
54261;SDS011;40174;52.364;6.452;2022-10-04T07:26:40;18.25;;;8.40;;
54261;SDS011;40174;52.364;6.452;2022-10-04T07:29:12;17.10;;;8.00;;
54261;SDS011;40174;52.364;6.452;2022-10-04T07:31:50;18.65;;;7.70;;
54261;SDS011;40174;52.364;6.452;2022-10-04T07:34:28;17.25;;;7.70;;
54261;SDS011;40174;52.364;6.452;2022-10-04T07:36:58;14.23;;;8.23;;
54261;SDS011;40174;52.364;6.452;2022-10-04T07:39:37;17.30;;;7.60;;
54261;SDS011;40174;52.364;6.452;2022-10-04T07:42:11;18.33;;;7.88;;
54261;SDS011;40174;52.364;6.452;2022-10-04T07:44:45;16.27;;;7.43;;
54261;SDS011;40174;52.364;6.452;2022-10-04T07:47:21;16.10;;;7.30;;
54261;SDS011;40174;52.364;6.452;2022-10-04T07:49:49;15.05;;;7.93;;
54261;SDS011;40174;52.364;6.452;2022-10-04T07:52:30;16.60;;;7.38;;
54261;SDS011;40174;52.364;6.452;2022-10-04T07:55:19;14.67;;;7.37;;
54261;SDS011;40174;52.364;6.452;2022-10-04T07:57:53;16.27;;;7.28;;
54261;SDS011;40174;52.364;6.452;2022-10-04T08:00:26;16.15;;;7.72;;
54261;SDS011;40174;52.364;6.452;2022-10-04T08:03:13;14.98;;;7.20;;
54261;SDS011;40174;52.364;6.452;2022-10-04T08:05:53;14.10;;;6.75;;
54261;SDS011;40174;52.364;6.452;2022-10-04T08:08:34;14.00;;;7.35;;
54261;SDS011;40174;52.364;6.452;2022-10-04T08:11:17;12.75;;;6.80;;
54261;SDS011;40174;52.364;6.452;2022-10-04T08:13:50;14.77;;;8.02;;
54261;SDS011;40174;52.364;6.452;2022-10-04T08:16:25;13.40;;;7.32;;
54261;SDS011;40174;52.364;6.452;2022-10-04T08:19:03;15.63;;;7.25;;
54261;SDS011;40174;52.364;6.452;2022-10-04T08:21:40;16.88;;;6.65;;
54261;SDS011;40174;52.364;6.452;2022-10-04T08:24:18;14.68;;;6.78;;
54261;SDS011;40174;52.364;6.452;2022-10-04T08:26:56;14.23;;;6.30;;
54261;SDS011;40174;52.364;6.452;2022-10-04T08:29:45;17.63;;;6.40;;
54261;SDS011;40174;52.364;6.452;2022-10-04T08:32:26;18.60;;;6.88;;
54261;SDS011;40174;52.364;6.452;2022-10-04T08:35:30;12.32;;;6.63;;
54261;SDS011;40174;52.364;6.452;2022-10-04T08:38:10;18.17;;;7.05;;
54261;SDS011;40174;52.364;6.452;2022-10-04T08:43:57;11.65;;;5.28;;
54261;SDS011;40174;52.364;6.452;2022-10-04T08:53:19;13.52;;;6.10;;
54261;SDS011;40174;52.364;6.452;2022-10-04T08:56:08;12.70;;;4.47;;
54261;SDS011;40174;52.364;6.452;2022-10-04T09:01:37;10.60;;;4.65;;
54261;SDS011;40174;52.364;6.452;2022-10-04T09:10:19;9.48;;;4.40;;
54261;SDS011;40174;52.364;6.452;2022-10-04T09:13:02;13.98;;;5.18;;
54261;SDS011;40174;52.364;6.452;2022-10-04T09:15:51;11.52;;;4.03;;
54261;SDS011;40174;52.364;6.452;2022-10-04T09:18:25;10.75;;;4.38;;
54261;SDS011;40174;52.364;6.452;2022-10-04T09:21:09;11.57;;;4.30;;
54261;SDS011;40174;52.364;6.452;2022-10-04T09:23:56;12.95;;;4.30;;
54261;SDS011;40174;52.364;6.452;2022-10-04T09:26:44;9.27;;;3.65;;
54261;SDS011;40174;52.364;6.452;2022-10-04T09:29:24;11.40;;;3.70;;
54261;SDS011;40174;52.364;6.452;2022-10-04T09:32:06;12.10;;;3.75;;
54261;SDS011;40174;52.364;6.452;2022-10-04T09:35:05;11.10;;;3.17;;
54261;SDS011;40174;52.364;6.452;2022-10-04T09:37:54;8.13;;;2.72;;
54261;SDS011;40174;52.364;6.452;2022-10-04T09:40:45;8.90;;;2.80;;
54261;SDS011;40174;52.364;6.452;2022-10-04T09:43:34;11.90;;;3.55;;
54261;SDS011;40174;52.364;6.452;2022-10-04T09:46:36;9.30;;;3.13;;
54261;SDS011;40174;52.364;6.452;2022-10-04T09:49:21;10.00;;;3.15;;
54261;SDS011;40174;52.364;6.452;2022-10-04T09:52:10;6.60;;;2.90;;
54261;SDS011;40174;52.364;6.452;2022-10-04T09:54:59;14.30;;;3.30;;
54261;SDS011;40174;52.364;6.452;2022-10-04T09:57:42;15.57;;;3.30;;
54261;SDS011;40174;52.364;6.452;2022-10-04T10:00:19;9.02;;;3.30;;
54261;SDS011;40174;52.364;6.452;2022-10-04T10:02:53;5.95;;;2.72;;
54261;SDS011;40174;52.364;6.452;2022-10-04T10:05:58;9.50;;;3.10;;
54261;SDS011;40174;52.364;6.452;2022-10-04T10:08:41;8.98;;;2.72;;
54261;SDS011;40174;52.364;6.452;2022-10-04T10:11:20;9.27;;;2.97;;
54261;SDS011;40174;52.364;6.452;2022-10-04T10:17:12;10.57;;;3.25;;
54261;SDS011;40174;52.364;6.452;2022-10-04T10:19:52;7.10;;;2.78;;
54261;SDS011;40174;52.364;6.452;2022-10-04T10:22:46;10.43;;;3.15;;
54261;SDS011;40174;52.364;6.452;2022-10-04T10:25:37;10.73;;;3.00;;
54261;SDS011;40174;52.364;6.452;2022-10-04T10:28:22;8.98;;;3.55;;
54261;SDS011;40174;52.364;6.452;2022-10-04T10:31:05;9.00;;;3.13;;
54261;SDS011;40174;52.364;6.452;2022-10-04T10:33:59;9.20;;;2.95;;
54261;SDS011;40174;52.364;6.452;2022-10-04T10:36:52;8.82;;;3.03;;
54261;SDS011;40174;52.364;6.452;2022-10-04T10:42:54;8.68;;;3.13;;
54261;SDS011;40174;52.364;6.452;2022-10-04T10:45:54;7.38;;;3.03;;
54261;SDS011;40174;52.364;6.452;2022-10-04T10:48:32;8.80;;;2.92;;
54261;SDS011;40174;52.364;6.452;2022-10-04T10:51:09;10.82;;;3.03;;
54261;SDS011;40174;52.364;6.452;2022-10-04T10:53:55;12.30;;;2.70;;
54261;SDS011;40174;52.364;6.452;2022-10-04T10:56:51;7.85;;;3.53;;
54261;SDS011;40174;52.364;6.452;2022-10-04T10:59:41;7.03;;;2.83;;
54261;SDS011;40174;52.364;6.452;2022-10-04T11:05:42;8.85;;;2.95;;
54261;SDS011;40174;52.364;6.452;2022-10-04T11:11:39;8.77;;;2.95;;
54261;SDS011;40174;52.364;6.452;2022-10-04T11:14:35;8.93;;;3.63;;
54261;SDS011;40174;52.364;6.452;2022-10-04T11:17:17;11.48;;;3.10;;
54261;SDS011;40174;52.364;6.452;2022-10-04T11:20:01;10.93;;;3.30;;
54261;SDS011;40174;52.364;6.452;2022-10-04T11:23:03;12.68;;;3.45;;
54261;SDS011;40174;52.364;6.452;2022-10-04T11:25:56;5.50;;;2.50;;
54261;SDS011;40174;52.364;6.452;2022-10-04T11:28:36;10.52;;;3.10;;
54261;SDS011;40174;52.364;6.452;2022-10-04T11:31:26;6.65;;;3.10;;
54261;SDS011;40174;52.364;6.452;2022-10-04T11:37:14;7.97;;;3.15;;
54261;SDS011;40174;52.364;6.452;2022-10-04T11:40:08;6.90;;;2.83;;
54261;SDS011;40174;52.364;6.452;2022-10-04T11:42:51;10.50;;;3.33;;
54261;SDS011;40174;52.364;6.452;2022-10-04T11:45:37;6.70;;;2.50;;
54261;SDS011;40174;52.364;6.452;2022-10-04T11:48:29;8.68;;;3.53;;
54261;SDS011;40174;52.364;6.452;2022-10-04T11:51:13;6.80;;;2.60;;
54261;SDS011;40174;52.364;6.452;2022-10-04T11:54:03;10.07;;;2.83;;
54261;SDS011;40174;52.364;6.452;2022-10-04T11:56:50;10.55;;;2.80;;
54261;SDS011;40174;52.364;6.452;2022-10-04T11:59:39;8.70;;;2.75;;
54261;SDS011;40174;52.364;6.452;2022-10-04T12:05:30;10.23;;;2.75;;
54261;SDS011;40174;52.364;6.452;2022-10-04T12:08:19;9.77;;;2.90;;
54261;SDS011;40174;52.364;6.452;2022-10-04T12:11:02;10.15;;;2.80;;
54261;SDS011;40174;52.364;6.452;2022-10-04T12:13:55;7.18;;;2.70;;
54261;SDS011;40174;52.364;6.452;2022-10-04T12:16:49;8.10;;;2.85;;
54261;SDS011;40174;52.364;6.452;2022-10-04T12:22:42;6.60;;;2.80;;
54261;SDS011;40174;52.364;6.452;2022-10-04T12:28:46;7.28;;;3.30;;
54261;SDS011;40174;52.364;6.452;2022-10-04T12:31:29;9.98;;;3.40;;
54261;SDS011;40174;52.364;6.452;2022-10-04T12:34:03;7.20;;;3.30;;
54261;SDS011;40174;52.364;6.452;2022-10-04T12:36:43;7.45;;;3.13;;
54261;SDS011;40174;52.364;6.452;2022-10-04T12:42:37;8.65;;;3.05;;
54261;SDS011;40174;52.364;6.452;2022-10-04T12:45:21;8.52;;;3.08;;
54261;SDS011;40174;52.364;6.452;2022-10-04T12:47:59;11.38;;;3.83;;
54261;SDS011;40174;52.364;6.452;2022-10-04T12:50:39;8.50;;;3.35;;
54261;SDS011;40174;52.364;6.452;2022-10-04T12:53:17;9.98;;;3.67;;
54261;SDS011;40174;52.364;6.452;2022-10-04T12:56:02;8.15;;;2.95;;
54261;SDS011;40174;52.364;6.452;2022-10-04T12:58:40;7.90;;;2.83;;
54261;SDS011;40174;52.364;6.452;2022-10-04T13:01:19;6.30;;;2.40;;
54261;SDS011;40174;52.364;6.452;2022-10-04T13:07:09;11.07;;;3.13;;
54261;SDS011;40174;52.364;6.452;2022-10-04T13:09:49;6.40;;;2.90;;
54261;SDS011;40174;52.364;6.452;2022-10-04T13:12:31;8.52;;;3.13;;
54261;SDS011;40174;52.364;6.452;2022-10-04T13:15:16;7.57;;;2.63;;
54261;SDS011;40174;52.364;6.452;2022-10-04T13:17:51;8.97;;;2.83;;
54261;SDS011;40174;52.364;6.452;2022-10-04T13:20:36;10.50;;;2.92;;
54261;SDS011;40174;52.364;6.452;2022-10-04T13:23:12;7.38;;;2.75;;
54261;SDS011;40174;52.364;6.452;2022-10-04T13:26:04;8.20;;;2.47;;
54261;SDS011;40174;52.364;6.452;2022-10-04T13:28:54;8.65;;;2.65;;
54261;SDS011;40174;52.364;6.452;2022-10-04T13:31:29;9.27;;;2.33;;
54261;SDS011;40174;52.364;6.452;2022-10-04T13:34:02;10.07;;;2.85;;
54261;SDS011;40174;52.364;6.452;2022-10-04T13:36:43;7.70;;;2.80;;
54261;SDS011;40174;52.364;6.452;2022-10-04T13:39:28;9.98;;;2.70;;
54261;SDS011;40174;52.364;6.452;2022-10-04T13:42:09;7.70;;;1.98;;
54261;SDS011;40174;52.364;6.452;2022-10-04T13:44:46;8.05;;;2.72;;
54261;SDS011;40174;52.364;6.452;2022-10-04T13:47:37;7.78;;;2.47;;
54261;SDS011;40174;52.364;6.452;2022-10-04T13:50:30;8.45;;;2.22;;
54261;SDS011;40174;52.364;6.452;2022-10-04T13:53:11;6.88;;;2.10;;
54261;SDS011;40174;52.364;6.452;2022-10-04T13:56:12;6.38;;;2.40;;
54261;SDS011;40174;52.364;6.452;2022-10-04T13:59:06;8.07;;;3.28;;
54261;SDS011;40174;52.364;6.452;2022-10-04T14:01:44;9.63;;;2.70;;
54261;SDS011;40174;52.364;6.452;2022-10-04T14:10:26;9.43;;;2.40;;
54261;SDS011;40174;52.364;6.452;2022-10-04T14:13:17;4.88;;;2.05;;
54261;SDS011;40174;52.364;6.452;2022-10-04T14:16:10;7.40;;;2.47;;
54261;SDS011;40174;52.364;6.452;2022-10-04T14:19:11;5.25;;;2.15;;
54261;SDS011;40174;52.364;6.452;2022-10-04T14:22:24;8.75;;;2.50;;
54261;SDS011;40174;52.364;6.452;2022-10-04T14:25:13;7.03;;;2.50;;
54261;SDS011;40174;52.364;6.452;2022-10-04T14:28:02;9.65;;;2.65;;
54261;SDS011;40174;52.364;6.452;2022-10-04T14:30:47;6.55;;;2.60;;
54261;SDS011;40174;52.364;6.452;2022-10-04T14:36:33;5.72;;;2.47;;
54261;SDS011;40174;52.364;6.452;2022-10-04T14:39:20;6.00;;;2.15;;
54261;SDS011;40174;52.364;6.452;2022-10-04T14:42:05;5.97;;;2.00;;
54261;SDS011;40174;52.364;6.452;2022-10-04T14:44:52;7.18;;;2.78;;
54261;SDS011;40174;52.364;6.452;2022-10-04T14:47:39;11.45;;;2.70;;
54261;SDS011;40174;52.364;6.452;2022-10-04T14:50:37;8.63;;;2.25;;
54261;SDS011;40174;52.364;6.452;2022-10-04T14:53:23;6.10;;;2.47;;
54261;SDS011;40174;52.364;6.452;2022-10-04T14:56:02;5.10;;;2.15;;
54261;SDS011;40174;52.364;6.452;2022-10-04T14:58:52;7.68;;;2.30;;
54261;SDS011;40174;52.364;6.452;2022-10-04T15:01:27;7.15;;;2.08;;
54261;SDS011;40174;52.364;6.452;2022-10-04T15:06:50;5.25;;;2.10;;
54261;SDS011;40174;52.364;6.452;2022-10-04T15:15:24;9.73;;;2.20;;
54261;SDS011;40174;52.364;6.452;2022-10-04T15:18:08;5.72;;;2.50;;
54261;SDS011;40174;52.364;6.452;2022-10-04T15:20:48;6.32;;;2.22;;
54261;SDS011;40174;52.364;6.452;2022-10-04T15:23:25;8.63;;;2.50;;
54261;SDS011;40174;52.364;6.452;2022-10-04T15:25:58;4.90;;;2.00;;
54261;SDS011;40174;52.364;6.452;2022-10-04T15:28:35;6.65;;;2.42;;
54261;SDS011;40174;52.364;6.452;2022-10-04T15:31:12;5.90;;;2.08;;
54261;SDS011;40174;52.364;6.452;2022-10-04T15:33:45;6.95;;;2.40;;
54261;SDS011;40174;52.364;6.452;2022-10-04T15:36:33;7.85;;;2.63;;
54261;SDS011;40174;52.364;6.452;2022-10-04T15:39:31;5.25;;;2.08;;
54261;SDS011;40174;52.364;6.452;2022-10-04T15:42:08;7.57;;;1.98;;
54261;SDS011;40174;52.364;6.452;2022-10-04T15:47:37;6.93;;;2.00;;
54261;SDS011;40174;52.364;6.452;2022-10-04T15:50:22;5.80;;;2.20;;
54261;SDS011;40174;52.364;6.452;2022-10-04T15:53:09;6.93;;;2.08;;
54261;SDS011;40174;52.364;6.452;2022-10-04T15:55:55;7.25;;;2.28;;
54261;SDS011;40174;52.364;6.452;2022-10-04T15:58:34;5.53;;;2.00;;
54261;SDS011;40174;52.364;6.452;2022-10-04T16:01:18;8.95;;;2.20;;
54261;SDS011;40174;52.364;6.452;2022-10-04T16:04:04;6.95;;;2.15;;
54261;SDS011;40174;52.364;6.452;2022-10-04T16:06:43;6.47;;;2.13;;
54261;SDS011;40174;52.364;6.452;2022-10-04T16:09:21;6.28;;;1.95;;
54261;SDS011;40174;52.364;6.452;2022-10-04T16:17:30;7.22;;;2.22;;
54261;SDS011;40174;52.364;6.452;2022-10-04T16:20:17;6.93;;;1.90;;
54261;SDS011;40174;52.364;6.452;2022-10-04T16:26:04;7.70;;;2.47;;
54261;SDS011;40174;52.364;6.452;2022-10-04T16:31:40;4.57;;;2.03;;
54261;SDS011;40174;52.364;6.452;2022-10-04T16:34:32;7.15;;;2.08;;
54261;SDS011;40174;52.364;6.452;2022-10-04T16:37:15;6.93;;;2.58;;
54261;SDS011;40174;52.364;6.452;2022-10-04T16:39:50;4.35;;;2.03;;
54261;SDS011;40174;52.364;6.452;2022-10-04T16:42:32;8.27;;;2.40;;
54261;SDS011;40174;52.364;6.452;2022-10-04T16:48:05;11.23;;;1.92;;
54261;SDS011;40174;52.364;6.452;2022-10-04T16:53:19;10.23;;;2.90;;
54261;SDS011;40174;52.364;6.452;2022-10-04T16:55:56;5.95;;;2.20;;
54261;SDS011;40174;52.364;6.452;2022-10-04T16:58:41;6.20;;;1.88;;
54261;SDS011;40174;52.364;6.452;2022-10-04T17:04:24;6.75;;;2.13;;
54261;SDS011;40174;52.364;6.452;2022-10-04T17:07:12;5.68;;;1.90;;
54261;SDS011;40174;52.364;6.452;2022-10-04T17:09:45;5.43;;;2.50;;
54261;SDS011;40174;52.364;6.452;2022-10-04T17:12:16;4.05;;;1.80;;
54261;SDS011;40174;52.364;6.452;2022-10-04T17:15:04;8.50;;;2.40;;
54261;SDS011;40174;52.364;6.452;2022-10-04T17:17:42;5.95;;;2.00;;
54261;SDS011;40174;52.364;6.452;2022-10-04T17:20:13;5.32;;;1.83;;
54261;SDS011;40174;52.364;6.452;2022-10-04T17:22:52;8.65;;;3.40;;
54261;SDS011;40174;52.364;6.452;2022-10-04T17:25:28;11.57;;;4.35;;
54261;SDS011;40174;52.364;6.452;2022-10-04T17:28:10;40.90;;;19.10;;
54261;SDS011;40174;52.364;6.452;2022-10-04T17:30:47;60.15;;;30.17;;
54261;SDS011;40174;52.364;6.452;2022-10-04T17:33:26;35.97;;;16.77;;
54261;SDS011;40174;52.364;6.452;2022-10-04T17:39:13;10.48;;;4.55;;
54261;SDS011;40174;52.364;6.452;2022-10-04T17:41:54;15.73;;;7.70;;
54261;SDS011;40174;52.364;6.452;2022-10-04T17:44:33;15.98;;;6.40;;